Time;durP1;ratioP1;P1;durP2;ratioP2;P2;SDS_P1;SDS_P2;PMS_P1;PMS_P2;Temp;Humidity;BMP_temperature;BMP_pressure;BME280_temperature;BME280_humidity;BME280_pressure;Samples;Min_cycle;Max_cycle;Signal;HPM_P1;HPM_P2
2023/03/26 00:02:28;;;;;;;10.43;4.40;;;;;;;7.12;100.00;99510.94;6290023;28;20045;-87
2023/03/26 00:05:31;;;;;;;8.65;4.07;;;;;;;6.99;100.00;99508.53;6286990;28;20044;-89
2023/03/26 00:08:37;;;;;;;10.73;4.63;;;;;;;6.85;100.00;99526.81;6289808;28;20502;-86
2023/03/26 00:11:40;;;;;;;8.32;4.50;;;;;;;6.65;100.00;99536.91;6289964;28;20060;-84
2023/03/26 00:14:42;;;;;;;7.45;4.22;;;;;;;6.56;100.00;99535.09;6285090;28;20053;-85
2023/03/26 00:17:46;;;;;;;8.48;4.03;;;;;;;6.57;100.00;99553.91;6287684;28;20122;-85
2023/03/26 00:20:48;;;;;;;6.88;4.00;;;;;;;6.47;100.00;99557.19;6288499;28;20036;-87
2023/03/26 00:23:52;;;;;;;6.72;4.35;;;;;;;6.40;100.00;99555.22;6281852;28;20167;-87
2023/03/26 00:26:54;;;;;;;7.65;3.80;;;;;;;6.41;100.00;99564.53;6284423;28;20048;-86
2023/03/26 00:29:58;;;;;;;8.10;3.90;;;;;;;6.44;100.00;99575.41;6289177;28;20051;-87
2023/03/26 00:33:01;;;;;;;5.47;3.97;;;;;;;6.45;100.00;99565.94;6286824;28;20097;-86
2023/03/26 00:36:05;;;;;;;4.68;3.35;;;;;;;6.47;100.00;99571.78;6285069;28;20040;-87
2023/03/26 00:39:08;;;;;;;7.25;3.40;;;;;;;6.49;100.00;99571.69;6272319;28;20133;-87
2023/03/26 00:42:13;;;;;;;9.80;3.75;;;;;;;6.44;100.00;99574.59;6286896;28;20052;-87
2023/03/26 00:45:20;;;;;;;9.85;4.13;;;;;;;6.44;100.00;99584.88;6273729;28;20050;-88
2023/03/26 00:48:22;;;;;;;7.32;4.30;;;;;;;6.38;100.00;99581.00;6254630;28;20389;-89
2023/03/26 00:51:42;;;;;;;4.60;3.35;;;;;;;6.46;100.00;99586.41;6280255;28;20405;-91
2023/03/26 00:54:45;;;;;;;6.15;3.40;;;;;;;6.46;100.00;99596.69;6278911;28;20383;-91
2023/03/26 00:57:47;;;;;;;6.78;3.28;;;;;;;6.40;100.00;99592.00;6277725;28;20506;-91
2023/03/26 01:00:58;;;;;;;9.48;3.58;;;;;;;6.41;100.00;99593.66;6279432;28;20093;-91
2023/03/26 01:04:22;;;;;;;7.78;3.10;;;;;;;6.39;100.00;99599.84;6286263;28;20051;-92
2023/03/26 01:07:27;;;;;;;8.07;3.25;;;;;;;6.40;100.00;99594.56;6284071;28;20049;-92
2023/03/26 01:10:37;;;;;;;6.93;3.40;;;;;;;6.46;100.00;99591.53;6284552;28;20055;-91
2023/03/26 01:13:54;;;;;;;11.90;3.00;;;;;;;6.33;100.00;99593.41;6287693;28;20051;-91
2023/03/26 01:17:00;;;;;;;11.85;2.85;;;;;;;6.23;100.00;99585.56;6281036;28;20047;-90
2023/03/26 01:20:13;;;;;;;7.13;3.00;;;;;;;6.07;100.00;99581.72;6276043;28;20048;-90
2023/03/26 01:23:22;;;;;;;3.35;2.40;;;;;;;5.99;100.00;99588.25;6285005;28;20048;-90
2023/03/26 01:26:58;;;;;;;7.43;2.70;;;;;;;5.92;100.00;99587.06;6283381;28;20044;-90
2023/03/26 01:30:21;;;;;;;4.15;1.90;;;;;;;5.98;100.00;99583.22;6260097;28;20525;-90
2023/03/26 01:33:35;;;;;;;5.75;2.20;;;;;;;6.07;100.00;99585.13;6275244;28;20083;-90
2023/03/26 01:36:51;;;;;;;7.13;2.10;;;;;;;6.18;100.00;99579.97;6284932;28;20040;-90
2023/03/26 01:40:06;;;;;;;4.78;1.90;;;;;;;6.14;100.00;99588.84;6267592;28;20067;-90
2023/03/26 01:43:19;;;;;;;4.10;1.80;;;;;;;6.07;100.00;99568.88;6286476;28;20453;-90
2023/03/26 01:46:24;;;;;;;3.63;1.67;;;;;;;6.02;100.00;99571.81;6285861;28;20068;-89
2023/03/26 01:49:28;;;;;;;5.88;1.70;;;;;;;5.91;100.00;99569.19;6284038;28;20044;-89
2023/03/26 01:52:30;;;;;;;6.88;1.80;;;;;;;5.77;100.00;99571.03;6284508;28;20053;-89
2023/03/26 01:56:05;;;;;;;4.55;1.65;;;;;;;5.71;100.00;99573.22;6291655;28;20056;-89
2023/03/26 01:59:44;;;;;;;4.43;1.60;;;;;;;5.76;100.00;99569.41;6232704;28;20049;-89
2023/03/26 02:03:04;;;;;;;4.47;1.17;;;;;;;5.72;100.00;99556.91;6233697;28;20064;-89
2023/03/26 02:06:30;;;;;;;3.65;1.20;;;;;;;5.65;100.00;99555.72;6215597;28;20049;-89
2023/03/26 02:09:40;;;;;;;3.20;1.02;;;;;;;5.69;100.00;99560.53;6230556;28;20195;-89
2023/03/26 02:12:43;;;;;;;3.60;1.20;;;;;;;5.82;100.00;99557.84;6231081;28;20119;-88
2023/03/26 02:16:03;;;;;;;2.67;1.48;;;;;;;5.95;100.00;99556.03;6213999;28;20045;-88
2023/03/26 02:19:14;;;;;;;3.67;1.15;;;;;;;5.97;100.00;99545.66;6230643;28;20049;-88
2023/03/26 02:22:17;;;;;;;2.88;1.15;;;;;;;6.00;100.00;99545.41;6217119;28;20057;-89
2023/03/26 02:25:25;;;;;;;3.00;1.30;;;;;;;6.01;100.00;99537.59;6204810;28;20110;-88
2023/03/26 02:28:28;;;;;;;3.13;1.00;;;;;;;6.04;100.00;99547.63;6219442;28;20041;-89
2023/03/26 02:31:30;;;;;;;2.85;0.90;;;;;;;6.11;100.00;99544.59;6247642;28;20049;-88
2023/03/26 02:34:32;;;;;;;4.35;1.30;;;;;;;6.04;100.00;99545.06;6262215;28;20037;-88
2023/03/26 02:37:35;;;;;;;3.85;1.13;;;;;;;6.18;100.00;99543.19;6285852;28;20383;-87
2023/03/26 02:40:46;;;;;;;5.65;1.20;;;;;;;6.19;100.00;99550.78;6287277;28;20529;-88
2023/03/26 02:43:48;;;;;;;4.60;1.08;;;;;;;6.21;100.00;99536.06;6288487;28;20048;-88
2023/03/26 02:46:53;;;;;;;2.92;1.10;;;;;;;6.28;100.00;99543.28;6288418;28;20049;-88
2023/03/26 02:50:31;;;;;;;3.28;1.00;;;;;;;6.32;100.00;99535.25;6273133;28;20041;-88
2023/03/26 02:54:08;;;;;;;4.38;1.50;;;;;;;6.31;100.00;99545.63;6261087;28;20146;-88
2023/03/26 02:57:36;;;;;;;4.00;1.40;;;;;;;6.24;100.00;99535.03;6257344;28;20060;-88
2023/03/26 03:00:55;;;;;;;4.30;1.65;;;;;;;6.24;100.00;99538.41;6260883;28;20102;-88
2023/03/26 03:04:03;;;;;;;4.75;1.40;;;;;;;6.15;100.00;99526.25;6258882;28;20090;-88
2023/03/26 03:07:13;;;;;;;6.13;1.63;;;;;;;6.04;100.00;99532.22;6244333;28;20041;-88
2023/03/26 03:10:20;;;;;;;4.15;1.50;;;;;;;6.10;100.00;99527.53;6243687;28;20075;-88
2023/03/26 03:13:44;;;;;;;3.80;1.50;;;;;;;6.03;100.00;99519.47;6245389;28;20174;-88
2023/03/26 03:16:50;;;;;;;5.05;1.40;;;;;;;5.94;100.00;99527.91;6236700;28;20427;-88
2023/03/26 03:19:52;;;;;;;3.80;1.67;;;;;;;5.94;100.00;99525.34;6256713;28;20049;-88
2023/03/26 03:22:55;;;;;;;2.97;1.20;;;;;;;5.94;100.00;99515.06;6244411;28;20158;-88
2023/03/26 03:25:57;;;;;;;3.90;1.33;;;;;;;5.94;100.00;99522.75;6255999;28;20049;-88
2023/03/26 03:28:59;;;;;;;3.83;1.25;;;;;;;5.99;100.00;99520.66;6278729;28;20040;-88
2023/03/26 03:32:01;;;;;;;3.78;1.88;;;;;;;5.99;100.00;99516.34;6287316;28;20076;-88
2023/03/26 03:35:15;;;;;;;5.55;1.80;;;;;;;5.98;100.00;99522.41;6286599;28;20063;-88
2023/03/26 03:38:22;;;;;;;6.05;1.88;;;;;;;6.03;100.00;99514.34;6288353;28;20062;-88
2023/03/26 03:41:25;;;;;;;3.25;1.60;;;;;;;5.96;100.00;99511.44;6270806;28;20044;-88
2023/03/26 03:44:27;;;;;;;3.22;1.80;;;;;;;5.93;100.00;99514.19;6287415;28;20044;-88
2023/03/26 03:47:29;;;;;;;4.80;1.48;;;;;;;5.89;100.00;99515.38;6286527;28;20053;-88
2023/03/26 03:50:31;;;;;;;5.60;1.73;;;;;;;5.88;100.00;99520.63;6286877;28;20449;-88
2023/03/26 03:54:07;;;;;;;2.13;1.20;;;;;;;5.89;100.00;99517.09;6254590;28;20288;-88
2023/03/26 03:57:30;;;;;;;5.50;1.55;;;;;;;5.88;100.00;99520.63;6148994;28;20674;-87
2023/03/26 04:00:40;;;;;;;5.60;1.80;;;;;;;5.85;100.00;99520.84;6136961;28;20051;-88
2023/03/26 04:04:00;;;;;;;2.67;1.70;;;;;;;5.86;100.00;99522.47;6131440;28;20051;-88
2023/03/26 04:07:18;;;;;;;2.50;1.30;;;;;;;5.93;100.00;99523.66;6134549;28;20054;-87
2023/03/26 04:10:38;;;;;;;3.87;1.37;;;;;;;6.00;100.00;99524.84;6135988;28;20882;-88
2023/03/26 04:13:45;;;;;;;2.13;1.40;;;;;;;5.97;100.00;99513.06;6138217;28;20728;-88
2023/03/26 04:17:01;;;;;;;2.35;1.15;;;;;;;5.98;100.00;99522.41;6120761;29;20099;-87
2023/03/26 04:20:07;;;;;;;8.23;1.45;;;;;;;6.05;100.00;99517.63;6125389;28;20399;-88
2023/03/26 04:23:13;;;;;;;3.58;1.60;;;;;;;6.12;100.00;99521.34;6113449;29;20055;-88
2023/03/26 04:26:18;;;;;;;4.00;1.50;;;;;;;6.16;100.00;99522.75;6136184;28;20556;-87
2023/03/26 04:29:48;;;;;;;6.30;2.00;;;;;;;6.15;100.00;99515.97;6149692;28;20054;-87
2023/03/26 04:32:57;;;;;;;3.85;1.48;;;;;;;6.16;100.00;99519.34;6164644;28;20222;-88
2023/03/26 04:36:01;;;;;;;2.88;1.30;;;;;;;6.08;100.00;99519.13;6284390;28;20049;-88
2023/03/26 04:39:10;;;;;;;2.17;1.40;;;;;;;6.04;100.00;99513.44;6285067;28;20087;-87
2023/03/26 04:42:32;;;;;;;3.85;1.50;;;;;;;6.10;100.00;99515.50;6286633;28;20271;-88
2023/03/26 04:45:44;;;;;;;6.30;1.48;;;;;;;6.11;100.00;99516.31;6269726;28;20525;-87
2023/03/26 04:48:47;;;;;;;3.80;1.30;;;;;;;6.10;100.00;99510.38;6289457;28;20048;-87
2023/03/26 04:51:49;;;;;;;2.42;1.60;;;;;;;6.10;100.00;99510.38;6260192;28;20059;-87
2023/03/26 04:56:05;;;;;;;7.18;1.92;;;;;;;6.11;100.00;99506.88;6286037;28;20049;-87
2023/03/26 04:59:33;;;;;;;7.18;2.90;;;;;;;6.10;100.00;99512.13;6232695;28;20053;-88
2023/03/26 05:02:40;;;;;;;6.10;3.00;;;;;;;6.15;100.00;99513.41;6219209;28;20052;-87
2023/03/26 05:05:42;;;;;;;8.93;3.40;;;;;;;6.19;100.00;99504.53;6213726;28;20045;-87
2023/03/26 05:08:45;;;;;;;7.97;3.15;;;;;;;6.24;100.00;99504.19;6224238;28;20061;-87
2023/03/26 05:11:57;;;;;;;7.20;2.60;;;;;;;6.15;100.00;99492.03;6234612;28;20045;-87
2023/03/26 05:14:59;;;;;;;6.32;2.58;;;;;;;6.10;100.00;99489.81;6228542;28;20521;-87
2023/03/26 05:18:18;;;;;;;7.22;3.00;;;;;;;5.95;100.00;99484.09;6215701;28;20081;-87
2023/03/26 05:21:25;;;;;;;5.65;2.97;;;;;;;5.91;100.00;99489.56;6236687;28;20511;-87
2023/03/26 05:24:27;;;;;;;6.28;2.88;;;;;;;5.73;100.00;99489.22;6229927;28;20511;-87
2023/03/26 05:27:29;;;;;;;8.45;2.42;;;;;;;5.76;100.00;99497.50;6231225;28;20148;-87
2023/03/26 05:30:31;;;;;;;7.75;2.90;;;;;;;5.78;100.00;99498.19;6234121;28;20586;-87
2023/03/26 05:33:34;;;;;;;7.22;2.70;;;;;;;5.85;100.00;99495.19;6225436;28;20605;-87
2023/03/26 05:36:41;;;;;;;7.85;2.40;;;;;;;5.85;100.00;99498.56;6265457;28;20048;-87
2023/03/26 05:40:00;;;;;;;5.30;2.00;;;;;;;5.98;100.00;99491.56;6284060;28;20153;-87
2023/03/26 05:43:19;;;;;;;5.50;2.33;;;;;;;6.03;100.00;99496.34;6293882;28;20444;-87
2023/03/26 05:46:28;;;;;;;5.72;2.10;;;;;;;6.10;100.00;99502.66;6284857;28;20045;-87
2023/03/26 05:49:30;;;;;;;5.75;2.63;;;;;;;6.16;100.00;99498.78;6284026;28;20082;-87
2023/03/26 05:52:32;;;;;;;4.90;2.47;;;;;;;6.17;100.00;99492.75;6289644;28;20047;-87
2023/03/26 05:56:00;;;;;;;3.20;2.03;;;;;;;6.27;100.00;99498.00;6291949;28;20406;-87
2023/03/26 05:59:22;;;;;;;5.55;2.10;;;;;;;6.41;100.00;99487.44;6295591;28;20454;-87
2023/03/26 06:02:43;;;;;;;8.05;2.25;;;;;;;6.45;100.00;99488.81;6296775;28;20476;-87
2023/03/26 06:06:14;;;;;;;4.80;2.10;;;;;;;6.41;100.00;99479.72;6293584;28;20049;-87
2023/03/26 06:09:21;;;;;;;5.57;2.28;;;;;;;6.48;100.00;99475.72;6284892;28;20071;-87
2023/03/26 06:12:23;;;;;;;4.20;2.20;;;;;;;6.47;100.00;99482.63;6293784;28;20052;-87
2023/03/26 06:15:25;;;;;;;6.40;2.42;;;;;;;6.45;100.00;99474.22;6288498;28;20377;-87
2023/03/26 06:18:35;;;;;;;4.93;2.00;;;;;;;6.49;100.00;99469.66;6289855;28;20044;-87
2023/03/26 06:21:55;;;;;;;4.25;2.28;;;;;;;6.59;100.00;99462.84;6297510;28;20792;-87
2023/03/26 06:25:03;;;;;;;6.35;2.05;;;;;;;6.71;100.00;99470.50;6280686;28;20509;-87
2023/03/26 06:28:19;;;;;;;5.93;2.03;;;;;;;6.79;100.00;99468.16;6298536;28;20040;-87
2023/03/26 06:31:58;;;;;;;5.72;2.15;;;;;;;6.85;100.00;99467.66;6236369;28;20563;-87
2023/03/26 06:35:24;;;;;;;7.18;2.10;;;;;;;6.87;100.00;99455.50;6218571;28;20164;-87
2023/03/26 06:38:26;;;;;;;4.85;2.22;;;;;;;6.94;100.00;99466.13;6219644;28;20411;-87
2023/03/26 06:41:28;;;;;;;10.95;2.13;;;;;;;7.00;100.00;99457.88;6235465;28;20136;-87
2023/03/26 06:44:36;;;;;;;8.88;2.22;;;;;;;7.01;100.00;99457.78;6234813;28;20087;-87
2023/03/26 06:47:56;;;;;;;8.05;2.10;;;;;;;7.05;100.00;99451.41;6235359;28;20951;-87
2023/03/26 06:51:13;;;;;;;4.38;1.85;;;;;;;7.10;100.00;99458.78;6220313;28;20049;-87
2023/03/26 06:54:33;;;;;;;7.82;2.28;;;;;;;7.01;100.00;99457.78;6236623;28;20061;-87
2023/03/26 06:57:47;;;;;;;5.73;1.87;;;;;;;7.09;100.00;99454.56;6220732;28;20053;-87
2023/03/26 07:00:53;;;;;;;3.90;1.90;;;;;;;7.20;100.00;99445.97;6235836;28;20299;-87
2023/03/26 07:04:14;;;;;;;6.05;1.83;;;;;;;7.28;100.00;99441.03;6288197;28;20052;-87
2023/03/26 07:07:34;;;;;;;5.60;1.73;;;;;;;7.28;100.00;99446.16;6288225;28;20056;-88
2023/03/26 07:11:24;;;;;;;3.55;1.90;;;;;;;7.35;100.00;99442.13;6233009;28;20072;-87
2023/03/26 07:14:46;;;;;;;4.88;2.00;;;;;;;7.48;100.00;99440.19;6232806;28;20515;-87
2023/03/26 07:18:06;;;;;;;12.20;2.65;;;;;;;7.52;100.00;99441.53;6220988;28;20054;-87
2023/03/26 07:21:10;;;;;;;6.47;1.63;;;;;;;7.65;100.00;99437.94;6211499;28;20655;-87
2023/03/26 07:24:12;;;;;;;5.32;2.17;;;;;;;7.57;100.00;99433.44;6198460;28;20595;-87
2023/03/26 07:27:45;;;;;;;4.65;1.40;;;;;;;7.67;100.00;99428.31;6214533;28;20072;-87
2023/03/26 07:31:12;;;;;;;4.35;2.33;;;;;;;7.66;100.00;99418.97;6215529;28;20056;-87
2023/03/26 07:34:56;;;;;;;6.75;2.17;;;;;;;7.61;100.00;99421.13;6298276;28;20047;-87
2023/03/26 07:38:48;;;;;;;3.72;1.77;;;;;;;7.56;100.00;99418.94;6285170;28;20049;-87
2023/03/26 07:42:22;;;;;;;4.45;1.73;;;;;;;7.59;100.00;99423.00;6212551;28;20064;-87
2023/03/26 07:45:43;;;;;;;8.00;1.77;;;;;;;7.66;100.00;99418.97;6209367;28;20532;-88
2023/03/26 07:48:58;;;;;;;3.22;1.98;;;;;;;7.80;100.00;99421.19;6210818;28;20050;-88
2023/03/26 07:52:13;;;;;;;6.22;1.67;;;;;;;8.01;100.00;99412.56;6194567;28;20115;-87
2023/03/26 07:55:59;;;;;;;8.07;1.63;;;;;;;8.25;100.00;99404.44;6167385;28;20107;-86
2023/03/26 07:59:31;;;;;;;3.72;1.63;;;;;;;8.33;100.00;99405.44;6162869;28;20513;-87
2023/03/26 08:03:30;;;;;;;4.40;1.67;;;;;;;8.32;100.00;99411.53;6159872;28;20059;-87
2023/03/26 08:06:58;;;;;;;4.63;1.50;;;;;;;8.29;100.00;99405.81;6161687;28;20058;-87
2023/03/26 08:10:37;;;;;;;5.18;1.70;;;;;;;8.27;100.00;99403.38;6160522;28;20042;-87
2023/03/26 08:14:15;;;;;;;5.47;1.77;;;;;;;8.44;100.00;99407.09;6151367;28;20604;-87
2023/03/26 08:17:29;;;;;;;8.88;1.55;;;;;;;8.68;100.00;99409.25;6151358;28;20119;-87
2023/03/26 08:20:33;;;;;;;4.60;1.70;;;;;;;8.87;100.00;99407.59;6163848;28;20551;-87
2023/03/26 08:23:48;;;;;;;4.72;1.85;;;;;;;9.03;100.00;99400.13;6158618;28;20505;-87
2023/03/26 08:27:12;;;;;;;6.80;1.73;;;;;;;9.03;100.00;99400.94;6146513;28;20138;-87
2023/03/26 08:30:25;;;;;;;7.75;1.88;;;;;;;9.12;100.00;99401.03;6153539;28;20049;-87
2023/03/26 08:33:29;;;;;;;7.03;1.55;;;;;;;9.13;100.00;99403.50;6277129;28;20060;-87
2023/03/26 08:36:31;;;;;;;5.47;1.48;;;;;;;9.06;100.00;99400.66;6287356;28;20036;-87
2023/03/26 08:39:33;;;;;;;5.00;1.60;;;;;;;9.01;100.00;99397.66;6286924;28;20047;-87
2023/03/26 08:42:53;;;;;;;7.45;1.75;;;;;;;8.95;100.00;99400.81;6286531;28;20520;-87
2023/03/26 08:46:18;;;;;;;7.53;1.70;;;;;;;8.80;100.00;99397.84;6276620;28;20048;-87
2023/03/26 08:49:33;;;;;;;7.85;1.42;;;;;;;8.70;100.00;99401.41;6287679;28;20520;-87
2023/03/26 08:53:00;;;;;;;3.13;1.50;;;;;;;8.78;100.00;99388.63;6288198;28;20040;-87
2023/03/26 08:56:11;;;;;;;4.05;1.80;;;;;;;9.00;100.00;99397.81;6295120;28;20151;-87
2023/03/26 09:00:00;;;;;;;5.47;1.83;;;;;;;9.44;100.00;99393.75;6281524;28;20036;-87
2023/03/26 09:03:09;;;;;;;5.30;1.65;;;;;;;9.88;100.00;99399.13;6285471;28;20075;-87
2023/03/26 09:06:26;;;;;;;4.68;1.73;;;;;;;10.19;100.00;99401.41;6283987;28;20495;-87
2023/03/26 09:09:56;;;;;;;5.45;1.50;;;;;;;10.50;100.00;99396.69;6272611;28;20043;-87
2023/03/26 09:13:18;;;;;;;2.72;1.33;;;;;;;10.82;100.00;99397.91;6290867;28;20051;-87
2023/03/26 09:16:49;;;;;;;6.47;2.30;;;;;;;10.74;100.00;99395.28;6298748;28;20563;-87
2023/03/26 09:20:12;;;;;;;4.82;1.92;;;;;;;10.62;100.00;99384.34;6284145;28;20048;-87
2023/03/26 09:23:51;;;;;;;4.43;1.80;;;;;;;10.49;100.00;99384.72;6284016;28;20132;-87
2023/03/26 09:27:25;;;;;;;4.95;1.95;;;;;;;10.49;100.00;99379.56;6288506;28;20043;-87
2023/03/26 09:30:35;;;;;;;3.33;1.60;;;;;;;10.51;100.00;99382.00;6287623;28;20108;-87
2023/03/26 09:33:55;;;;;;;6.25;1.75;;;;;;;10.66;100.00;99379.69;6293431;28;20509;-87
2023/03/26 09:37:28;;;;;;;4.15;1.90;;;;;;;10.78;100.00;99376.72;6270252;28;20049;-87
2023/03/26 09:40:56;;;;;;;3.80;1.40;;;;;;;10.75;100.00;99369.22;6275009;28;20047;-88
2023/03/26 09:44:24;;;;;;;3.92;1.45;;;;;;;10.77;100.00;99374.25;6287048;28;20047;-88
2023/03/26 09:48:10;;;;;;;3.35;1.48;;;;;;;10.66;100.00;99366.75;6287429;28;20048;-88
2023/03/26 09:52:05;;;;;;;3.50;1.50;;;;;;;10.57;100.00;99376.22;6280663;28;20048;-87
2023/03/26 09:55:31;;;;;;;5.10;1.50;;;;;;;10.45;100.00;99377.41;6193765;28;20057;-87
2023/03/26 09:58:42;;;;;;;4.97;1.63;;;;;;;10.37;100.00;99378.16;6216672;28;20054;-87
2023/03/26 10:02:03;;;;;;;5.97;1.60;;;;;;;10.34;100.00;99370.69;6211710;28;20078;-87
2023/03/26 10:05:34;;;;;;;4.72;1.80;;;;;;;10.54;100.00;99361.00;6211634;28;20053;-87
2023/03/26 10:09:06;;;;;;;4.35;1.63;;;;;;;10.87;100.00;99356.06;6210178;28;20058;-87
2023/03/26 10:12:49;;;;;;;4.05;1.67;;;;;;;11.12;100.00;99363.00;6190766;28;20523;-87
2023/03/26 10:16:20;;;;;;;4.10;1.50;;;;;;;11.51;100.00;99359.97;6214034;28;20103;-87
2023/03/26 10:19:34;;;;;;;4.67;1.97;;;;;;;11.56;100.00;99354.31;6209666;28;20046;-87
2023/03/26 10:22:54;;;;;;;4.88;1.70;;;;;;;11.59;100.00;99356.59;6204297;28;20300;-88
2023/03/26 10:26:04;;;;;;;2.20;1.73;;;;;;;11.51;100.00;99361.75;6205996;28;20054;-87
2023/03/26 10:29:43;;;;;;;5.10;1.80;;;;;;;11.49;100.00;99356.69;6261078;28;20131;-87
2023/03/26 10:32:50;;;;;;;6.72;1.63;;;;;;;11.36;100.00;99351.16;6304475;28;20048;-87
2023/03/26 10:36:08;;;;;;;4.57;1.83;;;;;;;11.19;100.00;99350.25;6287750;28;20056;-87
2023/03/26 10:39:24;;;;;;;4.78;1.85;;;;;;;10.66;100.00;99348.66;6282063;28;20131;-87
2023/03/26 10:43:03;;;;;;;6.15;2.10;;;;;;;10.54;100.00;99348.88;6288748;28;20036;-87
2023/03/26 10:46:44;;;;;;;6.15;2.30;;;;;;;10.81;100.00;99349.72;6287666;28;20106;-87
2023/03/26 10:50:05;;;;;;;8.10;2.00;;;;;;;11.19;100.00;99345.06;6285610;28;20527;-87
2023/03/26 10:53:39;;;;;;;5.00;1.80;;;;;;;11.31;100.00;99348.22;6286484;28;20049;-87
2023/03/26 10:56:54;;;;;;;6.15;1.90;;;;;;;11.53;100.00;99342.47;6287126;28;20044;-87
2023/03/26 11:00:11;;;;;;;7.85;2.00;;;;;;;11.60;100.00;99348.66;6279501;28;20127;-87
2023/03/26 11:03:51;;;;;;;5.22;2.22;;;;;;;11.64;100.00;99334.41;6284092;28;20094;-87
2023/03/26 11:07:19;;;;;;;4.00;1.98;;;;;;;11.80;100.00;99344.03;6295798;28;20155;-87
2023/03/26 11:10:57;;;;;;;4.65;1.95;;;;;;;11.97;100.00;99336.28;6288193;28;20049;-87
2023/03/26 11:14:38;;;;;;;8.55;2.53;;;;;;;12.21;100.00;99331.13;6212054;28;20184;-87
2023/03/26 11:17:50;;;;;;;4.55;2.20;;;;;;;12.35;100.00;99334.09;6193252;28;20046;-87
2023/03/26 11:21:06;;;;;;;5.57;2.22;;;;;;;12.40;100.00;99335.22;6200321;28;20116;-87
2023/03/26 11:24:44;;;;;;;5.20;2.40;;;;;;;12.57;100.00;99337.78;6193571;28;20085;-87
2023/03/26 11:27:57;;;;;;;6.03;2.60;;;;;;;12.50;100.00;99338.44;6209248;28;20054;-87
2023/03/26 11:31:26;;;;;;;4.13;2.22;;;;;;;12.64;100.00;99339.56;6192955;28;20053;-87
2023/03/26 11:34:50;;;;;;;3.65;2.30;;;;;;;12.70;100.00;99336.31;6191662;28;20606;-87
2023/03/26 11:38:05;;;;;;;4.43;2.28;;;;;;;12.53;100.00;99331.31;6210376;28;20046;-87
2023/03/26 11:41:19;;;;;;;5.70;2.20;;;;;;;12.65;100.00;99325.63;6212002;28;20050;-87
2023/03/26 11:45:06;;;;;;;6.38;2.25;;;;;;;12.69;100.00;99331.28;6192352;28;20069;-87
2023/03/26 11:48:34;;;;;;;5.70;2.30;;;;;;;12.47;100.00;99323.22;6194155;28;20549;-87
2023/03/26 11:51:41;;;;;;;3.40;2.10;;;;;;;12.37;100.00;99324.31;6272317;28;20056;-87
2023/03/26 11:54:47;;;;;;;3.47;2.00;;;;;;;12.38;100.00;99316.38;6287141;28;20401;-86
2023/03/26 11:57:55;;;;;;;6.28;2.10;;;;;;;12.39;100.00;99325.78;6285622;28;20049;-87
2023/03/26 12:00:57;;;;;;;5.35;2.58;;;;;;;12.28;100.00;99316.56;6286089;28;20481;-87
2023/03/26 12:04:12;;;;;;;4.85;1.95;;;;;;;12.41;100.00;99315.25;6285522;28;20048;-87
2023/03/26 12:07:28;;;;;;;7.35;2.80;;;;;;;12.31;100.00;99302.44;6285060;28;20064;-87
2023/03/26 12:10:36;;;;;;;4.55;2.55;;;;;;;12.59;100.00;99309.88;6285279;28;20095;-87
2023/03/26 12:14:02;;;;;;;5.63;2.67;;;;;;;12.92;100.00;99305.47;6271934;28;20059;-87
2023/03/26 12:17:07;;;;;;;3.92;1.90;;;;;;;13.14;100.00;99312.53;6280108;28;20045;-87
2023/03/26 12:20:24;;;;;;;4.05;2.08;;;;;;;13.23;100.00;99302.91;6288826;28;20451;-87
2023/03/26 12:23:34;;;;;;;7.70;2.88;;;;;;;13.36;100.00;99299.78;6290586;28;20032;-86
2023/03/26 12:26:43;;;;;;;5.05;2.40;;;;;;;13.53;100.00;99301.34;6284971;28;20422;-87
2023/03/26 12:29:59;;;;;;;5.30;2.30;;;;;;;13.68;100.00;99298.00;6282950;28;20418;-87
2023/03/26 12:33:04;;;;;;;4.22;2.22;;;;;;;13.76;100.00;99298.78;6283907;28;20032;-87
2023/03/26 12:36:26;;;;;;;5.60;2.08;;;;;;;13.80;100.00;99301.84;6263685;28;20048;-87
2023/03/26 12:39:42;;;;;;;3.97;2.03;;;;;;;13.79;100.00;99300.25;6283762;28;20170;-87
2023/03/26 12:43:19;;;;;;;4.97;1.80;;;;;;;13.93;100.00;99296.06;6268932;28;20056;-87
2023/03/26 12:46:46;;;;;;;4.25;1.92;;;;;;;13.90;100.00;99299.03;6283502;28;20056;-87
2023/03/26 12:50:13;;;;;;;5.60;1.70;;;;;;;13.92;100.00;99297.88;6287098;28;20044;-86
2023/03/26 12:53:45;;;;;;;5.68;1.88;;;;;;;13.73;100.00;99296.50;6287309;28;20050;-86
2023/03/26 12:57:10;;;;;;;6.80;2.00;;;;;;;13.60;100.00;99301.47;6286127;28;20041;-86
2023/03/26 13:00:44;;;;;;;3.55;1.95;;;;;;;13.42;100.00;99293.94;6286675;28;20064;-86
2023/03/26 13:04:17;;;;;;;5.15;1.80;;;;;;;13.17;100.00;99293.19;6272570;28;20048;-87
2023/03/26 13:08:01;;;;;;;5.35;2.30;;;;;;;12.78;100.00;99293.16;6284037;28;20057;-87
2023/03/26 13:11:37;;;;;;;5.57;1.90;;;;;;;12.32;100.00;99285.88;6144276;28;20074;-90
2023/03/26 13:15:03;;;;;;;4.80;2.13;;;;;;;12.16;100.00;99281.53;6174449;28;20161;-90
2023/03/26 13:18:24;;;;;;;3.63;1.92;;;;;;;11.74;100.00;99284.22;6170387;28;20551;-91
2023/03/26 13:21:50;;;;;;;4.15;2.05;;;;;;;11.49;100.00;99283.34;6218893;28;20052;-91
2023/03/26 13:25:20;;;;;;;6.35;2.38;;;;;;;11.35;100.00;99290.75;6288092;28;20822;-92
2023/03/26 13:28:38;;;;;;;4.65;2.25;;;;;;;11.16;100.00;99283.22;6285596;28;20568;-91
2023/03/26 13:32:12;;;;;;;6.75;2.67;;;;;;;10.91;100.00;99275.34;6283530;28;20045;-92
2023/03/26 13:35:48;;;;;;;7.50;2.50;;;;;;;10.69;100.00;99271.50;6212473;28;20050;-89
2023/03/26 13:39:08;;;;;;;5.32;2.83;;;;;;;10.56;100.00;99271.91;6207045;28;20058;-88
2023/03/26 13:42:36;;;;;;;8.85;4.43;;;;;;;10.60;100.00;99272.41;6208992;28;20411;-87
2023/03/26 13:45:48;;;;;;;9.95;7.60;;;;;;;10.52;100.00;99280.13;6182878;28;20050;-88
2023/03/26 13:48:50;;;;;;;9.43;5.22;;;;;;;10.43;100.00;99268.88;6197049;28;20643;-87
2023/03/26 13:52:01;;;;;;;5.65;2.50;;;;;;;10.44;100.00;99272.31;6210953;28;20860;-87
2023/03/26 13:55:17;;;;;;;12.70;7.10;;;;;;;10.46;100.00;99273.78;6208352;28;20057;-87
2023/03/26 13:58:51;;;;;;;10.63;4.30;;;;;;;10.43;100.00;99268.09;6194860;28;20046;-87
2023/03/26 14:02:00;;;;;;;7.47;3.67;;;;;;;10.45;100.00;99269.56;6206384;28;20048;-87
2023/03/26 14:05:09;;;;;;;7.88;4.75;;;;;;;10.51;100.00;99278.50;6214111;28;20623;-87
2023/03/26 14:08:37;;;;;;;7.28;4.88;;;;;;;10.37;100.00;99269.50;6189282;28;20042;-87
2023/03/26 14:11:55;;;;;;;19.75;11.25;;;;;;;10.20;100.00;99281.47;6157195;28;20073;-87
2023/03/26 14:15:16;;;;;;;13.07;5.35;;;;;;;10.23;100.00;99275.19;6207162;28;20054;-87
2023/03/26 14:18:53;;;;;;;9.07;3.30;;;;;;;10.41;100.00;99277.78;6210430;28;20148;-87
2023/03/26 14:22:19;;;;;;;10.25;3.55;;;;;;;10.51;100.00;99279.31;6209004;28;20062;-88
2023/03/26 14:25:47;;;;;;;8.57;3.45;;;;;;;10.49;100.00;99276.06;6210267;28;20318;-87
2023/03/26 14:29:11;;;;;;;12.35;3.30;;;;;;;10.60;100.00;99282.75;6204697;28;20062;-87
2023/03/26 14:32:46;;;;;;;7.28;2.65;;;;;;;10.77;100.00;99284.47;6210157;28;20048;-87
2023/03/26 14:36:08;;;;;;;10.70;3.25;;;;;;;10.60;100.00;99293.09;6208909;28;20058;-87
2023/03/26 14:39:35;;;;;;;7.03;3.20;;;;;;;10.49;100.00;99281.25;6191723;28;20117;-90
2023/03/26 14:43:08;;;;;;;8.13;2.72;;;;;;;10.40;100.00;99287.31;6209987;28;20439;-86
2023/03/26 14:46:53;;;;;;;8.35;3.55;;;;;;;10.18;100.00;99287.75;6209992;28;20049;-87
2023/03/26 14:50:36;;;;;;;8.68;3.00;;;;;;;10.11;100.00;99277.19;6293193;28;20134;-86
2023/03/26 14:53:46;;;;;;;6.90;3.75;;;;;;;10.17;100.00;99291.31;6282657;28;20113;-86
2023/03/26 14:57:18;;;;;;;4.72;2.92;;;;;;;10.13;100.00;99289.00;6287619;28;20509;-86
2023/03/26 15:00:54;;;;;;;10.73;3.08;;;;;;;10.23;100.00;99290.69;6281448;28;20052;-86
2023/03/26 15:04:46;;;;;;;10.48;3.20;;;;;;;10.26;100.00;99296.41;6288203;28;20044;-86
2023/03/26 15:07:50;;;;;;;4.93;2.00;;;;;;;10.21;100.00;99297.78;6290331;28;20052;-86
2023/03/26 15:11:33;;;;;;;6.18;2.55;;;;;;;10.13;100.00;99290.78;6282281;28;20554;-87
2023/03/26 15:15:01;;;;;;;7.20;3.53;;;;;;;10.05;100.00;99295.88;6285583;28;20072;-87
2023/03/26 15:18:30;;;;;;;9.65;3.30;;;;;;;10.00;100.00;99291.16;6286744;28;20265;-85
2023/03/26 15:22:11;;;;;;;6.90;3.38;;;;;;;9.81;100.00;99292.13;6291251;28;20086;-85
2023/03/26 15:25:48;;;;;;;7.60;5.50;;;;;;;9.53;100.00;99296.50;6263241;28;20395;-86
2023/03/26 15:29:10;;;;;;;5.05;2.80;;;;;;;9.59;100.00;99293.34;6271464;28;20041;-85